Nearby METAR Reports

 

KPBI - West Palm Beach, Florida, USA
Distance from station: NNE 9mi, 14km
Updated: Sun, 29-Nov-2020 11:53pm EST
Clear
Clear
 Wind from SSW
Wind: SSW 3 mph , 6 km/h
Temperature: 70°F , 21°C
Dew Point: 66°F , 19°C
Humidity: 88%
Barometer: 30.00 inHg , 1015.9 hPa
Clouds: Clear
Visibility: 10 miles , 16 km
2020/11/30 04:53 KPBI 300453Z 21003KT 10SM CLR 21/19 A3000 RMK AO2 SLP157 T02110189 402780194
KBCT - Boca Raton, Florida, USA
Distance from station: SSE 13mi, 21km
Updated: Sun, 29-Nov-2020 10:53pm EST
Partly cloudy
Partly cloudy
 Wind from S
Wind: S 6 mph , 9 km/h
Temperature: 73°F , 23°C
Dew Point: 66°F , 19°C
Humidity: 78%
Barometer: 30.02 inHg , 1016.6 hPa
Clouds: Partly cloudy
Visibility: 10 miles , 16 km
Cloud details: Partly cloudy 1500 ft
2020/11/30 03:53 KBCT 300353Z 19005KT 10SM SCT015 23/19 A3002
 
KPMP - Pompano Beach, Florida, USA
Distance from station: S 22mi, 36km
Updated: Sun, 29-Nov-2020 11:53pm EST
Clear
Clear
 Wind from S
Wind: S 7 mph , 11 km/h
Temperature: 73°F , 23°C
Dew Point: 66°F , 19°C
Humidity: 78%
Barometer: 29.99 inHg , 1015.6 hPa
Clouds: Clear
Visibility: 10 miles , 16 km
2020/11/30 04:53 KPMP 300453Z AUTO 17006KT 10SM CLR 23/19 A2999 RMK AO2 SLP158 T02330189 402720194
KFXE - Ft Lauderd/Exec, Florida, USA
Distance from station: S 25mi, 41km
Updated: Sun, 29-Nov-2020 11:53pm EST
Clear
Clear
 Wind from SSE
Wind: SSE 6 mph , 9 km/h
Temperature: 73°F , 23°C
Dew Point: 66°F , 19°C
Humidity: 78%
Barometer: 29.99 inHg , 1015.6 hPa
Clouds: Clear
Visibility: 10 miles , 16 km
2020/11/30 04:53 KFXE 300453Z AUTO 16005KT 10SM CLR 23/19 A2999 RMK AO2 SLP159 T02280194 402780189 TSNO $
 
KFLL - Ft Lauderd/Holly, Florida, USA
Distance from station: S 35mi, 56km
Updated: Sun, 29-Nov-2020 11:53pm EST
Clear
Clear
 Wind from SSE
Wind: SSE 7 mph , 11 km/h
Temperature: 73°F , 23°C
Dew Point: 66°F , 19°C
Humidity: 78%
Barometer: 29.99 inHg , 1015.6 hPa
Clouds: Clear
Visibility: 10 miles , 16 km
2020/11/30 04:53 KFLL 300453Z 16006KT 10SM CLR 23/19 A2999 RMK AO2 SLP156 T02330189 402780200 $
KHWO - Hollywood, Florida, USA
Distance from station: S 39mi, 64km
Updated: Sun, 29-Nov-2020 11:53pm EST
Clear
Clear
 Wind from SE
Wind: SE 5 mph , 7 km/h
Temperature: 72°F , 22°C
Dew Point: 68°F , 20°C
Humidity: 88%
Barometer: 30.01 inHg , 1016.3 hPa
Clouds: Clear
Visibility: 10 miles , 16 km
2020/11/30 04:53 KHWO 300453Z AUTO 14004KT 10SM CLR 22/20 A3001 RMK AO2 SLP163 T02170200 402780194 $
 
KSUA - Stuart/Witham, Florida, USA
Distance from station: N 43mi, 69km
Updated: Sun, 29-Nov-2020 11:55pm EST
Mostly cloudy
Mostly cloudy
 Wind from SSW
Wind: SSW 5 mph , 7 km/h
Temperature: 72°F , 22°C
Dew Point: 64°F , 18°C
Humidity: 78%
Barometer: 30.01 inHg , 1016.3 hPa
Clouds: Mostly cloudy
Visibility: 10 miles , 16 km
Cloud details: Mostly cloudy 6000 ft
2020/11/30 04:55 KSUA 300455Z AUTO 20004KT 10SM BKN060 22/18 A3001 RMK AO2
KOPF - Miami/Opa Locka, Florida, USA
Distance from station: S 46mi, 73km
Updated: Sun, 29-Nov-2020 11:53pm EST
Clear
Clear
 Wind from SSE
Wind: SSE 6 mph , 9 km/h
Temperature: 70°F , 21°C
Dew Point: 64°F , 18°C
Humidity: 83%
Barometer: 30.01 inHg , 1016.3 hPa
Clouds: Clear
Visibility: 10 miles , 16 km
2020/11/30 04:53 KOPF 300453Z AUTO 15005KT 10SM CLR 21/18 A3001 RMK AO2 SLP161 T02060183 402780189 $
 
KMIA - Miami, Florida, USA
Distance from station: S 54mi, 86km
Updated: Sun, 29-Nov-2020 11:53pm EST
Clear
Clear
 Wind from SSE
Wind: SSE 5 mph , 7 km/h
Temperature: 73°F , 23°C
Dew Point: 66°F , 19°C
Humidity: 78%
Barometer: 30.00 inHg , 1015.9 hPa
Clouds: Clear
Visibility: 10 miles , 16 km
2020/11/30 04:53 KMIA 300453Z 15004KT 10SM CLR 23/19 A3000 RMK AO2 SLP160 T02280194 402830200 $
KOBE - Okeechobee Cty, Florida, USA
Distance from station: NW 64mi, 104km
Updated: Sun, 29-Nov-2020 11:55pm EST
Overcast
Overcast
 Wind from SSW
Wind: SSW 10 mph , 17 km/h
Temperature: 72°F , 22°C
Dew Point: 68°F , 20°C
Humidity: 88%
Barometer: 29.99 inHg , 1015.6 hPa
Clouds: Overcast
Visibility: 10 miles , 16 km
Cloud details: Partly cloudy 2900 ft
Overcast 4400 ft
2020/11/30 04:55 KOBE 300455Z AUTO 20009KT 10SM SCT029 OVC044 22/20 A2999 RMK AO2
 
KFPR - Fort Pierce, Florida, USA
Distance from station: NNW 66mi, 106km
Updated: Sun, 29-Nov-2020 11:53pm EST
Overcast
Overcast
 Wind from S
Wind: S 7 mph , 11 km/h
Temperature: 72°F , 22°C
Dew Point: 66°F , 19°C
Humidity: 83%
Barometer: 29.98 inHg , 1015.2 hPa
Clouds: Overcast
Visibility: 10 miles , 16 km
Cloud details: Overcast 5000 ft
2020/11/30 04:53 KFPR 300453Z AUTO 19006KT 10SM OVC050 22/19 A2998 RMK AO2 SLP153 T02220194 402830172
KTMB - Miami/Tamiami, Florida, USA
Distance from station: SSW 66mi, 106km
Updated: Sun, 29-Nov-2020 11:53pm EST
Clear
Clear
 Wind from SSE
Wind: SSE 3 mph , 6 km/h
Temperature: 70°F , 21°C
Dew Point: 68°F , 20°C
Humidity: 94%
Barometer: 30.00 inHg , 1015.9 hPa
Clouds: Clear
Visibility: 10 miles , 16 km
2020/11/30 04:53 KTMB 300453Z AUTO 15003KT 10SM CLR 21/20 A3000 RMK AO2 SLP159 T02110200 402780172 $
 
KVRB - Vero Beach, Florida, USA
Distance from station: NNW 76mi, 123km
Updated: Sun, 29-Nov-2020 11:53pm EST
Overcast
Overcast
 Wind from S
Wind: S 12 mph , 19 km/h
Temperature: 73°F , 23°C
Dew Point: 66°F , 19°C
Humidity: 78%
Barometer: 29.98 inHg , 1015.2 hPa
Clouds: Overcast
Visibility: 10 miles , 16 km
Cloud details: Overcast 5500 ft
2020/11/30 04:53 KVRB 300453Z AUTO 19010KT 10SM OVC055 23/19 A2998 RMK AO2 SLP150 T02280189 402780178
KHST - Homestead Afb, Florida, USA
Distance from station: S 77mi, 124km
Updated: Sun, 29-Nov-2020 11:56pm EST
Clear
Clear
 Wind from SE
Wind: SE 3 mph , 6 km/h
Temperature: 68°F , 20°C
Barometer: 29.99 inHg , 1015.6 hPa
Clouds: Clear
Visibility: 10 miles , 16 km
2020/11/30 04:56 KHST 300456Z AUTO 13003KT 10SM CLR 20/ A2999 RMK AO2 SLP159 403000191 $
 
KIMM - Immokalee, Florida, USA
Distance from station: W 77mi, 124km
Updated: Sun, 29-Nov-2020 11:55pm EST
Clear
Clear
 Wind from calm
Wind: Calm
Temperature: 68°F , 20°C
Dew Point: 66°F , 19°C
Humidity: 94%
Barometer: 30.00 inHg , 1015.9 hPa
Clouds: Clear
Visibility: 10 miles , 16 km
2020/11/30 04:55 KIMM 300455Z AUTO 00000KT 10SM CLR 20/19 A3000 RMK AO2 PWINO
MYGF - Freeport Intl A, Bahamas
Distance from station: E 90mi, 145km
Updated: Sun, 29-Nov-2020 11:00pm EST
Few Clouds
Few Clouds
 Wind from SSE
Wind: SSE 2 mph , 4 km/h
Temperature: 70°F , 21°C
Dew Point: 66°F , 19°C
Humidity: 88%
Barometer: 30.02 inHg , 1016.6 hPa
Clouds: Few Clouds
Visibility: 6 miles , 10 km
Cloud details: Few Clouds 2300 ft
2020/11/30 04:00 MYGF 300400Z AUTO 16002KT 9999 FEW023 21/19 A3002
 
KSEF - Sebring, Florida, USA
Distance from station: NW 95mi, 153km
Updated: Sun, 29-Nov-2020 11:35pm EST
Mostly cloudy
Mostly cloudy
 Wind from S
Wind: S 8 mph , 13 km/h
Temperature: 70°F , 21°C
Dew Point: 66°F , 19°C
Humidity: 88%
Barometer: 29.99 inHg , 1015.6 hPa
Clouds: Mostly cloudy
Visibility: 10 miles , 16 km
Cloud details: Partly cloudy 4800 ft
Mostly cloudy 5000 ft
2020/11/30 04:35 KSEF 300435Z AUTO 19007KT 10SM SCT048 BKN050 21/19 A2999 RMK AO2 T02120189
KRSW - Fort Myers, Florida, USA
Distance from station: W 98mi, 158km
Updated: Sun, 29-Nov-2020 11:53pm EST
Clear
Clear
 Wind from S
Wind: S 8 mph , 13 km/h
Temperature: 72°F , 22°C
Dew Point: 66°F , 19°C
Humidity: 83%
Barometer: 29.99 inHg , 1015.6 hPa
Clouds: Clear
Visibility: 10 miles , 16 km
2020/11/30 04:53 KRSW 300453Z AUTO 18007KT 10SM CLR 22/19 A2999 RMK AO2 SLP154 T02220194 402780178